Time;durP1;ratioP1;P1;durP2;ratioP2;P2;SDS_P1;SDS_P2;PMS_P1;PMS_P2;Temp;Humidity;BMP_temperature;BMP_pressure;BME280_temperature;BME280_humidity;BME280_pressure;Samples;Min_cycle;Max_cycle;Signal;HPM_P1;HPM_P2
2023/12/25 00:00:53;;;;;;;11.45;1.08;;;;;;;-146.25;100.00;52629.75;2096443;28;35498;-75
2023/12/25 00:01:55;;;;;;;7.88;1.05;;;;;;;-146.25;100.00;52643.97;2097617;28;32864;-75
2023/12/25 00:02:57;;;;;;;5.53;0.88;;;;;;;-146.25;100.00;52652.06;2096062;28;32556;-75
2023/12/25 00:03:59;;;;;;;7.25;0.90;;;;;;;-146.25;100.00;52672.34;2096105;28;32319;-76
2023/12/25 00:05:00;;;;;;;5.82;0.70;;;;;;;-146.25;100.00;52639.91;2097033;28;36236;-76
2023/12/25 00:06:03;;;;;;;6.30;0.77;;;;;;;-146.25;100.00;52615.56;2097206;28;35318;-75
2023/12/25 00:07:08;;;;;;;7.28;1.15;;;;;;;-146.25;100.00;52676.41;2097024;28;35923;-74
2023/12/25 00:08:10;;;;;;;10.55;0.80;;;;;;;-146.25;100.00;52643.97;2096909;28;38384;-73
2023/12/25 00:09:14;;;;;;;9.43;0.95;;;;;;;-146.25;100.00;52668.28;2097214;28;33495;-73
2023/12/25 00:10:18;;;;;;;9.52;0.65;;;;;;;-146.25;100.00;52619.63;2096934;28;35833;-73
2023/12/25 00:11:20;;;;;;;7.40;0.70;;;;;;;-146.25;100.00;52635.84;2097003;28;38098;-74
2023/12/25 00:12:23;;;;;;;9.32;1.02;;;;;;;-146.25;100.00;52652.06;2097031;28;33739;-73
2023/12/25 00:13:27;;;;;;;7.32;0.80;;;;;;;-146.25;100.00;52676.41;2097293;28;36491;-73
2023/12/25 00:14:29;;;;;;;8.27;0.68;;;;;;;-146.25;100.00;52670.31;2096915;28;31425;-74
2023/12/25 00:15:31;;;;;;;7.93;0.65;;;;;;;-146.25;100.00;52611.50;2097113;28;34001;-73
2023/12/25 00:16:33;;;;;;;9.68;0.80;;;;;;;-146.25;100.00;52633.81;2097678;28;36301;-72
2023/12/25 00:17:37;;;;;;;8.77;0.82;;;;;;;-146.25;100.00;52623.69;2097408;28;20025;-74
2023/12/25 00:18:38;;;;;;;10.63;0.98;;;;;;;-146.25;100.00;52650.03;2096990;28;40280;-74
2023/12/25 00:19:41;;;;;;;12.07;0.65;;;;;;;-146.25;100.00;52656.13;2097075;28;34087;-74
2023/12/25 00:20:43;;;;;;;7.50;0.93;;;;;;;-146.25;100.00;52643.97;2096840;28;35029;-74
2023/12/25 00:21:44;;;;;;;7.18;1.00;;;;;;;-146.25;100.00;52629.75;2096971;28;36556;-75
2023/12/25 00:22:46;;;;;;;6.88;0.80;;;;;;;-146.25;100.00;52639.91;2096506;28;31667;-74
2023/12/25 00:23:48;;;;;;;8.00;0.88;;;;;;;-146.25;100.00;52670.31;2096843;28;23453;-73
2023/12/25 00:24:50;;;;;;;7.22;0.77;;;;;;;-146.25;100.00;52676.41;2097535;28;31650;-73
2023/12/25 00:25:51;;;;;;;8.52;0.88;;;;;;;-146.25;100.00;52645.97;2097318;28;33766;-73
2023/12/25 00:26:55;;;;;;;8.32;0.68;;;;;;;-146.25;100.00;52660.19;2097025;28;35782;-73
2023/12/25 00:27:57;;;;;;;7.95;1.00;;;;;;;-146.25;100.00;52639.91;2096979;28;31662;-73
2023/12/25 00:28:59;;;;;;;5.70;0.47;;;;;;;-146.25;100.00;52641.94;2096633;28;30852;-73
2023/12/25 00:30:02;;;;;;;9.18;0.80;;;;;;;-146.25;100.00;52658.16;2096332;28;26959;-74
2023/12/25 00:31:06;;;;;;;6.90;0.80;;;;;;;-146.25;100.00;52692.63;2096925;28;20048;-74
2023/12/25 00:32:08;;;;;;;8.45;0.80;;;;;;;-146.25;100.00;52645.97;2096081;28;31943;-73
2023/12/25 00:33:09;;;;;;;6.75;0.70;;;;;;;-146.25;100.00;52643.97;2096012;28;31094;-73
2023/12/25 00:34:12;;;;;;;8.32;1.17;;;;;;;-146.25;100.00;52682.47;2096593;28;25740;-73
2023/12/25 00:35:13;;;;;;;8.50;0.80;;;;;;;-146.25;100.00;52643.97;2097012;28;32031;-73
2023/12/25 00:36:15;;;;;;;7.55;1.00;;;;;;;-146.25;100.00;52635.84;2096356;28;31384;-73
2023/12/25 00:37:17;;;;;;;6.78;0.65;;;;;;;-146.25;100.00;52623.69;2096833;28;20968;-72
2023/12/25 00:38:19;;;;;;;6.75;0.57;;;;;;;-146.25;100.00;52666.25;2097337;28;29082;-74
2023/12/25 00:39:26;;;;;;;7.88;0.82;;;;;;;-146.25;100.00;52619.63;2097202;28;20041;-75
2023/12/25 00:40:28;;;;;;;7.28;0.77;;;;;;;-146.25;100.00;52656.13;2096849;28;28674;-74
2023/12/25 00:41:31;;;;;;;6.55;0.80;;;;;;;-146.25;100.00;52664.22;2097368;28;20064;-74
2023/12/25 00:42:33;;;;;;;10.48;1.23;;;;;;;-146.25;100.00;52660.19;2096937;28;27404;-74
2023/12/25 00:43:37;;;;;;;7.45;0.70;;;;;;;-146.25;100.00;52652.06;2096995;28;20112;-74
2023/12/25 00:44:39;;;;;;;7.22;1.08;;;;;;;-146.25;100.00;52619.63;2096810;28;27462;-74
2023/12/25 00:45:44;;;;;;;9.57;0.98;;;;;;;-146.25;100.00;52615.56;2096124;28;35228;-74
2023/12/25 00:46:47;;;;;;;7.50;0.98;;;;;;;-146.25;100.00;52643.97;2089565;28;20808;-73
2023/12/25 00:47:49;;;;;;;11.50;0.85;;;;;;;-146.25;100.00;52641.94;2095966;28;26148;-73
2023/12/25 00:48:51;;;;;;;9.82;0.70;;;;;;;-146.25;100.00;52617.59;2097436;28;20040;-73
2023/12/25 00:49:58;;;;;;;7.95;0.80;;;;;;;-146.25;100.00;52645.97;2097637;28;20044;-74
2023/12/25 00:51:02;;;;;;;7.22;1.20;;;;;;;-146.25;100.00;52648.00;2104214;28;31116;-74
2023/12/25 00:52:04;;;;;;;6.85;1.00;;;;;;;-146.25;100.00;52635.84;2096069;28;26603;-74
2023/12/25 00:53:08;;;;;;;9.55;0.90;;;;;;;-146.25;100.00;52658.16;2096575;28;30544;-74
2023/12/25 00:54:10;;;;;;;8.25;1.05;;;;;;;-146.25;100.00;52625.72;2097077;28;27663;-73
2023/12/25 00:55:12;;;;;;;8.88;1.23;;;;;;;-146.25;100.00;52627.75;2104432;28;29379;-74
2023/12/25 00:56:14;;;;;;;5.47;0.65;;;;;;;-146.25;100.00;52643.97;2104897;28;23774;-74
2023/12/25 00:57:16;;;;;;;7.95;0.80;;;;;;;-146.25;100.00;52637.88;2096346;28;25976;-75
2023/12/25 00:58:20;;;;;;;6.25;0.80;;;;;;;-146.25;100.00;52652.06;2087828;28;26281;-74
2023/12/25 00:59:24;;;;;;;8.85;0.80;;;;;;;-146.25;100.00;52652.06;2088393;28;26259;-73
2023/12/25 01:00:26;;;;;;;7.25;0.90;;;;;;;-146.25;100.00;52627.75;2095675;28;32212;-74
2023/12/25 01:01:28;;;;;;;7.25;0.90;;;;;;;-146.25;100.00;52641.94;2096514;28;20045;-74
2023/12/25 01:02:30;;;;;;;8.90;0.80;;;;;;;-146.25;100.00;52619.63;2096420;28;23171;-74
2023/12/25 01:03:32;;;;;;;5.90;0.60;;;;;;;-146.25;100.00;52674.38;2096974;28;29692;-74
2023/12/25 01:04:37;;;;;;;5.25;0.80;;;;;;;-146.25;100.00;52684.50;2097284;28;20123;-74
2023/12/25 01:05:39;;;;;;;7.10;0.60;;;;;;;-146.25;100.00;52645.97;2095720;28;31207;-74
2023/12/25 01:06:40;;;;;;;6.43;0.70;;;;;;;-146.25;100.00;52652.06;2096339;28;32342;-73
2023/12/25 01:07:42;;;;;;;8.00;0.60;;;;;;;-146.25;100.00;52639.91;2096323;28;21152;-73
2023/12/25 01:08:44;;;;;;;8.40;0.88;;;;;;;-146.25;100.00;52613.53;2087843;28;32788;-73
2023/12/25 01:09:46;;;;;;;5.10;0.70;;;;;;;-146.25;100.00;52623.69;2096743;28;20886;-74
2023/12/25 01:10:48;;;;;;;7.20;0.55;;;;;;;-146.25;100.00;52637.88;2096913;28;24954;-74
2023/12/25 01:11:50;;;;;;;7.70;0.63;;;;;;;-146.25;100.00;52658.16;2096622;28;20045;-74
2023/12/25 01:12:51;;;;;;;5.95;0.40;;;;;;;-146.25;100.00;52627.75;2088331;28;25150;-75
2023/12/25 01:13:53;;;;;;;6.50;0.77;;;;;;;-146.25;100.00;52629.75;2096667;28;20037;-74
2023/12/25 01:14:55;;;;;;;10.48;0.65;;;;;;;-146.25;100.00;52639.91;2096882;28;27201;-74
2023/12/25 01:15:57;;;;;;;8.65;0.68;;;;;;;-146.25;100.00;52639.91;2096990;28;26956;-73
2023/12/25 01:17:01;;;;;;;10.02;1.05;;;;;;;-146.25;100.00;52607.47;2097244;28;21515;-72
2023/12/25 01:18:03;;;;;;;9.73;0.75;;;;;;;-146.25;100.00;52700.72;2096388;28;32833;-74
2023/12/25 01:19:05;;;;;;;5.20;0.52;;;;;;;-146.25;100.00;52645.97;2096912;28;27822;-75
2023/12/25 01:20:08;;;;;;;7.75;0.80;;;;;;;-146.25;100.00;52680.47;2087570;28;30611;-75
2023/12/25 01:21:10;;;;;;;8.45;0.75;;;;;;;-146.25;100.00;52658.16;2088543;28;26446;-72
2023/12/25 01:22:14;;;;;;;9.90;0.90;;;;;;;-146.25;100.00;52633.81;2096028;28;20041;-73
2023/12/25 01:23:16;;;;;;;11.13;0.90;;;;;;;-146.25;100.00;52656.13;2096313;28;31220;-73
2023/12/25 01:24:20;;;;;;;9.52;0.70;;;;;;;-146.25;100.00;52690.59;2096214;28;29931;-73
2023/12/25 01:25:22;;;;;;;8.88;0.88;;;;;;;-146.25;100.00;52670.31;2095925;28;26986;-73
2023/12/25 01:26:24;;;;;;;6.75;0.60;;;;;;;-146.25;100.00;52660.19;2096422;28;21721;-73
2023/12/25 01:27:25;;;;;;;6.22;0.60;;;;;;;-146.25;100.00;52619.63;2096257;28;22615;-73
2023/12/25 01:28:27;;;;;;;5.22;0.70;;;;;;;-146.25;100.00;52656.13;2096979;28;28172;-72
2023/12/25 01:29:29;;;;;;;5.22;0.65;;;;;;;-146.25;100.00;52635.84;2096252;28;21003;-72
2023/12/25 01:30:31;;;;;;;10.45;1.00;;;;;;;-146.25;100.00;52639.91;2096735;28;20041;-72
2023/12/25 01:31:35;;;;;;;5.80;0.60;;;;;;;-146.25;100.00;52639.91;2096103;28;32074;-73
2023/12/25 01:32:37;;;;;;;10.50;1.13;;;;;;;-146.25;100.00;52625.72;2087451;28;38266;-72
2023/12/25 01:33:39;;;;;;;11.70;0.95;;;;;;;-146.25;100.00;52643.97;2095626;28;32335;-72
2023/12/25 01:34:41;;;;;;;5.70;0.52;;;;;;;-146.25;100.00;52643.97;2096525;28;20094;-74
2023/12/25 01:35:43;;;;;;;9.30;1.10;;;;;;;-146.25;100.00;52639.91;2087661;28;27597;-74
2023/12/25 01:36:45;;;;;;;5.07;0.50;;;;;;;-146.25;100.00;52637.88;2096153;28;28466;-73
2023/12/25 01:37:47;;;;;;;7.45;0.80;;;;;;;-146.25;100.00;52645.97;2096208;28;28611;-73
2023/12/25 01:38:48;;;;;;;8.00;0.63;;;;;;;-146.25;100.00;52660.19;2095954;28;31129;-75
2023/12/25 01:39:50;;;;;;;10.45;0.90;;;;;;;-146.25;100.00;52641.94;2087694;28;27545;-71
2023/12/25 01:40:52;;;;;;;6.85;0.70;;;;;;;-146.25;100.00;52670.31;2087341;28;27990;-72
2023/12/25 01:41:59;;;;;;;8.30;0.80;;;;;;;-146.25;100.00;52619.63;2096207;28;29337;-73
2023/12/25 01:43:03;;;;;;;5.97;0.50;;;;;;;-146.25;100.00;52650.03;2096278;28;20057;-74
2023/12/25 01:44:05;;;;;;;6.65;0.52;;;;;;;-146.25;100.00;52658.16;2095939;28;31119;-73
2023/12/25 01:45:15;;;;;;;5.03;0.70;;;;;;;-146.25;100.00;52625.72;2103324;28;30593;-73
2023/12/25 01:46:18;;;;;;;6.43;0.47;;;;;;;-146.25;100.00;52637.88;2087626;28;20111;-74
2023/12/25 01:47:21;;;;;;;9.88;0.90;;;;;;;-146.25;100.00;52692.63;2087946;28;24637;-73
2023/12/25 01:48:24;;;;;;;7.38;0.70;;;;;;;-146.25;100.00;52635.84;2096465;28;20034;-73
2023/12/25 01:49:26;;;;;;;9.63;0.60;;;;;;;-146.25;100.00;52650.03;2088283;28;20939;-73
2023/12/25 01:50:30;;;;;;;10.00;0.73;;;;;;;-146.25;100.00;52678.44;2096077;28;29723;-74
2023/12/25 01:51:32;;;;;;;6.30;0.65;;;;;;;-146.25;100.00;52641.94;2096917;28;20045;-73
2023/12/25 01:52:33;;;;;;;10.63;1.02;;;;;;;-146.25;100.00;52637.88;2095982;28;29153;-73
2023/12/25 01:53:35;;;;;;;8.88;0.70;;;;;;;-146.25;100.00;52645.97;2096750;28;28741;-72
2023/12/25 01:54:38;;;;;;;8.02;0.80;;;;;;;-146.25;100.00;52692.63;2096588;28;27239;-73
2023/12/25 01:55:40;;;;;;;9.60;0.90;;;;;;;-146.25;100.00;52668.28;2095418;28;31988;-73
2023/12/25 01:56:42;;;;;;;8.35;0.90;;;;;;;-146.25;100.00;52660.19;2079912;28;20883;-73
2023/12/25 01:57:46;;;;;;;11.00;0.95;;;;;;;-146.25;100.00;52637.88;2088195;28;20252;-74
2023/12/25 01:58:49;;;;;;;8.40;0.90;;;;;;;-146.25;100.00;52658.16;2088025;28;20038;-73
2023/12/25 01:59:50;;;;;;;8.27;0.90;;;;;;;-146.25;100.00;52668.28;2088182;28;20073;-72
2023/12/25 02:00:52;;;;;;;5.78;1.02;;;;;;;-146.25;100.00;52664.22;2096199;28;20444;-73
2023/12/25 02:01:55;;;;;;;5.85;0.60;;;;;;;-146.25;100.00;52680.47;2087318;28;33734;-73
2023/12/25 02:03:00;;;;;;;7.00;0.88;;;;;;;-146.25;100.00;52597.31;2087649;28;21242;-74
2023/12/25 02:04:06;;;;;;;5.68;0.50;;;;;;;-146.25;100.00;52670.31;2096091;28;28560;-73
2023/12/25 02:05:08;;;;;;;6.10;0.40;;;;;;;-146.25;100.00;52623.69;2097157;28;20048;-74
2023/12/25 02:06:12;;;;;;;5.68;0.80;;;;;;;-146.25;100.00;52645.97;2095916;28;33869;-74
2023/12/25 02:07:15;;;;;;;9.43;1.10;;;;;;;-146.25;100.00;52660.19;2095682;28;27952;-74
2023/12/25 02:08:17;;;;;;;10.65;0.88;;;;;;;-146.25;100.00;52643.97;2095699;28;30546;-74
2023/12/25 02:09:19;;;;;;;4.85;0.60;;;;;;;-146.25;100.00;52611.50;2095835;28;20187;-74
2023/12/25 02:10:29;;;;;;;8.57;0.80;;;;;;;-146.25;100.00;52662.22;2096911;28;25728;-73
2023/12/25 02:11:31;;;;;;;4.78;0.60;;;;;;;-146.25;100.00;52648.00;2096895;28;20036;-73
2023/12/25 02:12:33;;;;;;;5.88;0.60;;;;;;;-146.25;100.00;52668.28;2096883;28;20060;-74
2023/12/25 02:13:36;;;;;;;5.65;0.50;;;;;;;-146.25;100.00;52660.19;2096186;28;20041;-74
2023/12/25 02:14:40;;;;;;;6.25;0.65;;;;;;;-146.25;100.00;52650.03;2096155;28;23600;-74
2023/12/25 02:15:43;;;;;;;10.38;0.75;;;;;;;-146.25;100.00;52621.66;2096052;28;31956;-74
2023/12/25 02:16:49;;;;;;;5.07;0.50;;;;;;;-146.25;100.00;52652.06;2096440;28;20087;-74
2023/12/25 02:17:54;;;;;;;5.15;0.52;;;;;;;-146.25;100.00;52672.34;2095928;28;20049;-74
2023/12/25 02:18:56;;;;;;;7.22;0.75;;;;;;;-146.25;100.00;52629.75;2096125;28;20041;-73
2023/12/25 02:19:59;;;;;;;3.97;0.38;;;;;;;-146.25;100.00;52660.19;2095675;28;32998;-75
2023/12/25 02:21:01;;;;;;;6.97;0.77;;;;;;;-146.25;100.00;52652.06;2096627;28;29882;-73
2023/12/25 02:22:07;;;;;;;11.88;0.70;;;;;;;-146.25;100.00;52635.84;2095594;28;32370;-75
2023/12/25 02:23:13;;;;;;;6.30;0.43;;;;;;;-146.25;100.00;52621.66;2096338;28;20191;-73
2023/12/25 02:24:22;;;;;;;4.85;0.25;;;;;;;-146.25;100.00;52684.50;2096066;28;28433;-73
2023/12/25 02:25:33;;;;;;;7.05;0.63;;;;;;;-146.25;100.00;52631.78;2089383;28;29782;-73
2023/12/25 02:26:35;;;;;;;7.22;0.50;;;;;;;-146.25;100.00;52639.91;2089989;28;23720;-72
2023/12/25 02:27:37;;;;;;;6.55;0.47;;;;;;;-146.25;100.00;52623.69;2087382;28;27898;-73
2023/12/25 02:28:39;;;;;;;5.43;0.40;;;;;;;-146.25;100.00;52633.81;2088009;28;20045;-73
2023/12/25 02:29:40;;;;;;;4.97;0.40;;;;;;;-146.25;100.00;52643.97;2095612;28;25097;-73
2023/12/25 02:30:44;;;;;;;3.45;0.32;;;;;;;-146.25;100.00;52641.94;2096165;28;29177;-73
2023/12/25 02:31:48;;;;;;;7.90;0.45;;;;;;;-146.25;100.00;52631.78;2095832;28;24460;-74
2023/12/25 02:32:50;;;;;;;7.05;0.50;;;;;;;-146.25;100.00;52700.72;2079280;28;30861;-74
2023/12/25 02:33:51;;;;;;;6.50;0.50;;;;;;;-146.25;100.00;52639.91;2088039;28;24133;-73
2023/12/25 02:34:53;;;;;;;4.47;0.32;;;;;;;-146.25;100.00;52660.19;2096426;28;29589;-74
2023/12/25 02:35:55;;;;;;;6.97;0.60;;;;;;;-146.25;100.00;52668.28;2096928;28;20040;-73
2023/12/25 02:36:57;;;;;;;6.50;0.43;;;;;;;-146.25;100.00;52645.97;2096370;28;28902;-74
2023/12/25 02:37:59;;;;;;;6.53;0.52;;;;;;;-146.25;100.00;52643.97;2095838;28;30564;-72
2023/12/25 02:39:01;;;;;;;8.52;0.73;;;;;;;-146.25;100.00;52627.75;2096365;28;27681;-74
2023/12/25 02:40:03;;;;;;;7.45;0.57;;;;;;;-146.25;100.00;52633.81;2096085;28;29339;-74
2023/12/25 02:41:05;;;;;;;5.90;0.73;;;;;;;-146.25;100.00;52631.78;2096319;28;29482;-74
2023/12/25 02:42:07;;;;;;;9.43;0.57;;;;;;;-146.25;100.00;52641.94;2096145;28;20037;-74
2023/12/25 02:43:10;;;;;;;4.45;0.30;;;;;;;-146.25;100.00;52641.94;2096201;28;20091;-74
2023/12/25 02:44:12;;;;;;;5.60;0.38;;;;;;;-146.25;100.00;52666.25;2095574;28;31824;-73
2023/12/25 02:45:16;;;;;;;7.75;0.60;;;;;;;-146.25;100.00;52637.88;2095939;28;24047;-73
2023/12/25 02:46:20;;;;;;;9.18;0.57;;;;;;;-146.25;100.00;52658.16;2095996;28;28388;-74
2023/12/25 02:47:24;;;;;;;7.93;0.50;;;;;;;-146.25;100.00;52595.28;2096451;28;27202;-73
2023/12/25 02:48:25;;;;;;;4.47;0.40;;;;;;;-146.25;100.00;52662.22;2095617;28;24172;-73
2023/12/25 02:49:27;;;;;;;2.80;0.30;;;;;;;-146.25;100.00;52668.28;2096156;28;33141;-74
2023/12/25 02:50:29;;;;;;;4.15;0.40;;;;;;;-146.25;100.00;52650.03;2096214;28;31787;-72
2023/12/25 02:51:33;;;;;;;4.07;0.35;;;;;;;-146.25;100.00;52666.25;2096542;28;28055;-72
2023/12/25 02:52:37;;;;;;;5.03;0.50;;;;;;;-146.25;100.00;52627.75;2093840;28;34397;-73
2023/12/25 02:53:41;;;;;;;5.38;0.30;;;;;;;-146.25;100.00;52635.84;2087507;28;23156;-73
2023/12/25 02:54:42;;;;;;;5.85;0.32;;;;;;;-146.25;100.00;52656.13;2087494;28;32445;-74
2023/12/25 02:55:45;;;;;;;6.35;0.70;;;;;;;-146.25;100.00;52643.97;2095280;28;28186;-72
2023/12/25 02:56:46;;;;;;;6.18;0.60;;;;;;;-146.25;100.00;52658.16;2095316;28;31203;-74
2023/12/25 02:57:48;;;;;;;4.07;0.45;;;;;;;-146.25;100.00;52648.00;2095522;28;30755;-73
2023/12/25 02:58:50;;;;;;;5.82;0.50;;;;;;;-146.25;100.00;52639.91;2095203;28;32418;-73
2023/12/25 02:59:52;;;;;;;7.75;0.50;;;;;;;-146.25;100.00;52662.22;2096107;28;28779;-73
2023/12/25 03:00:54;;;;;;;6.43;0.45;;;;;;;-146.25;100.00;52635.84;2090496;28;26786;-72
2023/12/25 03:01:55;;;;;;;6.15;0.60;;;;;;;-146.25;100.00;52639.91;2087165;28;36892;-74
2023/12/25 03:02:58;;;;;;;4.53;0.30;;;;;;;-146.25;100.00;52623.69;2087843;28;20846;-73
2023/12/25 03:04:00;;;;;;;7.57;0.40;;;;;;;-146.25;100.00;52633.81;2088328;28;24799;-73
2023/12/25 03:05:07;;;;;;;4.88;0.90;;;;;;;-146.25;100.00;52668.28;2087886;28;24936;-73
2023/12/25 03:06:09;;;;;;;3.00;0.30;;;;;;;-146.25;100.00;52635.84;2090987;28;20041;-74
2023/12/25 03:07:11;;;;;;;4.75;0.55;;;;;;;-146.25;100.00;52668.28;2096242;28;26703;-72
2023/12/25 03:08:12;;;;;;;4.82;0.30;;;;;;;-146.25;100.00;52668.28;2096192;28;29603;-74
2023/12/25 03:09:14;;;;;;;12.32;0.43;;;;;;;-146.25;100.00;52660.19;2095925;28;29526;-74
2023/12/25 03:10:18;;;;;;;4.47;0.38;;;;;;;-146.25;100.00;52621.66;2096290;28;31056;-74
2023/12/25 03:11:20;;;;;;;4.97;0.63;;;;;;;-146.25;100.00;52662.22;2096516;28;20357;-74
2023/12/25 03:12:24;;;;;;;5.80;0.50;;;;;;;-146.25;100.00;52658.16;2095587;28;20037;-75
2023/12/25 03:13:26;;;;;;;2.63;0.30;;;;;;;-146.25;100.00;52631.78;2096103;28;20173;-74
2023/12/25 03:14:28;;;;;;;4.22;0.70;;;;;;;-146.25;100.00;52674.38;2095597;28;32722;-74
2023/12/25 03:15:32;;;;;;;9.85;0.45;;;;;;;-146.25;100.00;52676.41;2095254;28;33127;-72
2023/12/25 03:16:33;;;;;;;4.55;0.35;;;;;;;-146.25;100.00;52654.09;2096044;28;20130;-75
2023/12/25 03:17:35;;;;;;;5.57;0.38;;;;;;;-146.25;100.00;52672.34;2095342;28;20049;-73
2023/12/25 03:18:39;;;;;;;5.75;0.45;;;;;;;-146.25;100.00;52641.94;2095647;28;29268;-73
2023/12/25 03:19:41;;;;;;;5.65;0.40;;;;;;;-146.25;100.00;52641.94;2096027;28;29636;-73
2023/12/25 03:20:43;;;;;;;5.80;0.63;;;;;;;-146.25;100.00;52686.53;2096128;28;27377;-73
2023/12/25 03:21:48;;;;;;;7.85;0.85;;;;;;;-146.25;100.00;52668.28;2096440;28;21030;-73
2023/12/25 03:22:50;;;;;;;3.95;0.35;;;;;;;-146.25;100.00;52694.66;2104234;28;21093;-73
2023/12/25 03:23:54;;;;;;;4.68;0.50;;;;;;;-146.25;100.00;52633.81;2103269;28;38637;-72
2023/12/25 03:25:01;;;;;;;5.10;0.50;;;;;;;-146.25;100.00;52639.91;2095947;28;20033;-72
2023/12/25 03:26:04;;;;;;;5.72;0.30;;;;;;;-146.25;100.00;52656.13;2087619;28;28263;-73
2023/12/25 03:27:06;;;;;;;5.40;0.38;;;;;;;-146.25;100.00;52639.91;2079840;28;20899;-73
2023/12/25 03:28:10;;;;;;;7.55;0.70;;;;;;;-146.25;100.00;52635.84;2087606;28;27293;-73
2023/12/25 03:29:12;;;;;;;4.63;0.40;;;;;;;-146.25;100.00;52648.00;2096517;28;20133;-72
2023/12/25 03:30:14;;;;;;;6.20;0.57;;;;;;;-146.25;100.00;52656.13;2096152;28;20071;-72
2023/12/25 03:31:16;;;;;;;8.05;1.00;;;;;;;-146.25;100.00;52652.06;2096135;28;23356;-73
2023/12/25 03:32:19;;;;;;;7.65;0.50;;;;;;;-146.25;100.00;52617.59;2095408;28;26922;-73
2023/12/25 03:33:21;;;;;;;6.70;0.50;;;;;;;-146.25;100.00;52597.31;2086714;28;34641;-73
2023/12/25 03:34:23;;;;;;;7.90;0.70;;;;;;;-146.25;100.00;52664.22;2095209;28;30300;-73
2023/12/25 03:35:24;;;;;;;10.85;0.88;;;;;;;-146.25;100.00;52656.13;2096689;28;20037;-73
2023/12/25 03:36:26;;;;;;;6.88;0.50;;;;;;;-146.25;100.00;52650.03;2095672;28;29280;-73
2023/12/25 03:37:28;;;;;;;7.95;0.60;;;;;;;-146.25;100.00;52629.75;2096010;28;29405;-74
2023/12/25 03:38:31;;;;;;;4.35;0.45;;;;;;;-146.25;100.00;52672.34;2095644;28;20128;-72
2023/12/25 03:39:33;;;;;;;8.85;0.77;;;;;;;-146.25;100.00;52660.19;2094941;28;26604;-73
2023/12/25 03:40:35;;;;;;;8.50;0.60;;;;;;;-146.25;100.00;52672.34;2095627;28;21065;-72
2023/12/25 03:41:36;;;;;;;9.02;0.70;;;;;;;-146.25;100.00;52611.50;2095659;28;25916;-73
2023/12/25 03:42:39;;;;;;;7.03;0.60;;;;;;;-146.25;100.00;52635.84;2095405;28;31818;-73
2023/12/25 03:43:41;;;;;;;5.72;0.50;;;;;;;-146.25;100.00;52654.09;2095911;28;20776;-72
2023/12/25 03:44:42;;;;;;;6.55;0.57;;;;;;;-146.25;100.00;52607.47;2095243;28;33381;-72
2023/12/25 03:45:44;;;;;;;9.73;0.50;;;;;;;-146.25;100.00;52629.75;2096816;28;20037;-73
2023/12/25 03:46:46;;;;;;;6.03;0.50;;;;;;;-146.25;100.00;52662.22;2096079;28;31080;-72
2023/12/25 03:47:48;;;;;;;6.45;0.50;;;;;;;-146.25;100.00;52652.06;2095682;28;35925;-72
2023/12/25 03:48:50;;;;;;;6.55;0.60;;;;;;;-146.25;100.00;52656.13;2095635;28;22242;-71
2023/12/25 03:49:54;;;;;;;6.88;0.60;;;;;;;-146.25;100.00;52637.88;2095509;28;26950;-71
2023/12/25 03:50:59;;;;;;;9.43;0.60;;;;;;;-146.25;100.00;52658.16;2095822;28;27466;-73
2023/12/25 03:52:02;;;;;;;6.90;0.60;;;;;;;-146.25;100.00;52633.81;2095500;28;30976;-73
2023/12/25 03:53:04;;;;;;;7.68;0.40;;;;;;;-146.25;100.00;52641.94;2095327;28;32386;-72
2023/12/25 03:54:05;;;;;;;8.40;0.95;;;;;;;-146.25;100.00;52674.38;2095803;28;20901;-73
2023/12/25 03:55:08;;;;;;;5.80;0.55;;;;;;;-146.25;100.00;52619.63;2095896;28;20072;-74
2023/12/25 03:56:15;;;;;;;7.07;0.68;;;;;;;-146.25;100.00;52674.38;2095735;28;34027;-73
2023/12/25 03:57:17;;;;;;;10.60;0.80;;;;;;;-146.25;100.00;52660.19;2095975;28;31851;-73
2023/12/25 03:58:18;;;;;;;6.00;0.57;;;;;;;-146.25;100.00;52654.09;2096294;28;20037;-73
2023/12/25 03:59:20;;;;;;;7.30;0.70;;;;;;;-146.25;100.00;52619.63;2095598;28;20048;-73
2023/12/25 04:00:24;;;;;;;4.10;0.43;;;;;;;-146.25;100.00;52615.56;2079590;28;20096;-73
2023/12/25 04:01:26;;;;;;;6.78;0.60;;;;;;;-146.25;100.00;52645.97;2087658;28;32208;-74
2023/12/25 04:02:28;;;;;;;5.95;0.52;;;;;;;-146.25;100.00;52678.44;2095380;28;27354;-73
2023/12/25 04:03:30;;;;;;;5.20;0.45;;;;;;;-146.25;100.00;52670.31;2094615;28;28706;-72
2023/12/25 04:04:32;;;;;;;4.50;0.40;;;;;;;-146.25;100.00;52680.47;2097883;28;20037;-72
2023/12/25 04:05:33;;;;;;;7.20;0.70;;;;;;;-146.25;100.00;52648.00;2096861;28;20037;-73
2023/12/25 04:06:35;;;;;;;8.80;0.55;;;;;;;-146.25;100.00;52692.63;2096866;28;29404;-73
2023/12/25 04:07:37;;;;;;;6.30;0.60;;;;;;;-146.25;100.00;52643.97;2098024;28;22965;-74
2023/12/25 04:08:39;;;;;;;6.55;0.60;;;;;;;-146.25;100.00;52641.94;2096502;28;23497;-73
2023/12/25 04:09:41;;;;;;;5.63;0.63;;;;;;;-146.25;100.00;52615.56;2096806;28;20757;-73
2023/12/25 04:10:43;;;;;;;8.95;0.80;;;;;;;-146.25;100.00;52668.28;2096962;28;27369;-75
2023/12/25 04:11:45;;;;;;;8.38;0.75;;;;;;;-146.25;100.00;52643.97;2096483;28;24784;-73
2023/12/25 04:12:47;;;;;;;7.82;0.60;;;;;;;-146.25;100.00;52639.91;2088687;28;20972;-74
2023/12/25 04:13:54;;;;;;;6.85;0.50;;;;;;;-146.25;100.00;52668.28;2088350;28;28893;-74
2023/12/25 04:14:56;;;;;;;11.65;0.75;;;;;;;-146.25;100.00;52641.94;2088366;28;20111;-74
2023/12/25 04:15:58;;;;;;;7.20;0.60;;;;;;;-146.25;100.00;52648.00;2088895;28;24792;-74
2023/12/25 04:17:00;;;;;;;8.05;1.10;;;;;;;-146.25;100.00;52621.66;2105452;28;20143;-75
2023/12/25 04:18:02;;;;;;;8.68;0.93;;;;;;;-146.25;100.00;52658.16;2096669;28;20107;-75
2023/12/25 04:19:04;;;;;;;8.18;0.75;;;;;;;-146.25;100.00;52670.31;2088833;28;20898;-75
2023/12/25 04:20:06;;;;;;;10.50;0.50;;;;;;;-146.25;100.00;52639.91;2079997;28;20050;-75
2023/12/25 04:21:20;;;;;;;7.15;0.60;;;;;;;-146.25;100.00;52660.19;2089242;28;20041;-75
2023/12/25 04:22:22;;;;;;;7.50;0.50;;;;;;;-146.25;100.00;52585.16;2096729;28;21046;-75
2023/12/25 04:23:23;;;;;;;10.48;1.02;;;;;;;-146.25;100.00;52654.09;2096060;28;21083;-76
2023/12/25 04:24:25;;;;;;;7.30;0.70;;;;;;;-146.25;100.00;52615.56;2096590;28;20926;-76
2023/12/25 04:25:27;;;;;;;14.63;1.10;;;;;;;-146.25;100.00;52668.28;2097296;28;21077;-77
2023/12/25 04:26:29;;;;;;;7.18;0.60;;;;;;;-146.25;100.00;52603.41;2096662;28;35999;-74
2023/12/25 04:27:31;;;;;;;8.27;0.52;;;;;;;-146.25;100.00;52619.63;2096877;28;29317;-76
2023/12/25 04:28:33;;;;;;;12.23;0.82;;;;;;;-146.25;100.00;52635.84;2088674;28;20121;-77
2023/12/25 04:29:38;;;;;;;6.72;0.63;;;;;;;-146.25;100.00;52625.72;2097516;28;20200;-79
2023/12/25 04:30:42;;;;;;;6.45;0.63;;;;;;;-146.25;100.00;52627.75;2097632;28;20041;-77
2023/12/25 04:31:44;;;;;;;9.60;0.85;;;;;;;-146.25;100.00;52625.72;2096815;28;20037;-77
2023/12/25 04:32:47;;;;;;;8.43;0.90;;;;;;;-146.25;100.00;52643.97;2088561;28;20049;-76
2023/12/25 04:33:51;;;;;;;8.13;0.60;;;;;;;-146.25;100.00;52643.97;2097175;28;20045;-76
2023/12/25 04:34:53;;;;;;;4.93;0.63;;;;;;;-146.25;100.00;52662.22;2096928;28;26584;-75
2023/12/25 04:35:55;;;;;;;8.10;0.60;;;;;;;-146.25;100.00;52656.13;2097692;28;20111;-76
2023/12/25 04:36:57;;;;;;;7.40;0.63;;;;;;;-146.25;100.00;52662.22;2096275;28;22878;-75
2023/12/25 04:37:58;;;;;;;10.70;0.68;;;;;;;-146.25;100.00;52635.84;2088470;28;20982;-75
2023/12/25 04:39:03;;;;;;;9.07;0.68;;;;;;;-146.25;100.00;52656.13;2096870;28;20044;-75
2023/12/25 04:40:06;;;;;;;8.98;0.90;;;;;;;-146.25;100.00;52631.78;2096797;28;20053;-76
2023/12/25 04:41:08;;;;;;;13.10;1.08;;;;;;;-146.25;100.00;52654.09;2088448;28;20065;-75
2023/12/25 04:42:10;;;;;;;10.98;1.13;;;;;;;-146.25;100.00;52643.97;2088464;28;20135;-75
2023/12/25 04:43:12;;;;;;;8.85;0.90;;;;;;;-146.25;100.00;52660.19;2088345;28;21182;-75
2023/12/25 04:44:18;;;;;;;10.80;0.70;;;;;;;-146.25;100.00;52648.00;2096946;28;20096;-76
2023/12/25 04:45:20;;;;;;;11.13;0.80;;;;;;;-146.25;100.00;52650.03;2096363;28;27247;-74